Terminal Aerodrome Forecast
Issued by NWS

Home | Current Version | Previous Version | Text Only | Print | Product List | Glossary On
Versions: 1 2 3 4 5 6 7 8 9 10 11 12 13 14 15 16 17 18 19
148
FTUS41 KCAR 102049 AAA
TAFPQI
TAF AMD
KPQI 102049Z 1021/1118 VRB03KT P6SM VCSH OVC025
      TEMPO 1021/1024 6SM -SHSN
     FM110000 VRB03KT P6SM VCSH OVC020
     FM110200 31006KT P6SM VCSH OVC015
     FM111200 33006KT P6SM SCT015 BKN025=

USA.gov is the U.S. government's official web portal to all federal, state and local government web resources and services.